sensor_id;sensor_type;location;lat;lon;timestamp;pressure;altitude;pressure_sealevel;temperature;humidity
4123;BME280;2075;51.062;6.920;2023-05-22T00:01:25;-11667.00;;;-144.48;100.00
4123;BME280;2075;51.062;6.920;2023-05-22T00:04:11;-11667.00;;;-144.48;100.00
4123;BME280;2075;51.062;6.920;2023-05-22T00:06:56;-11667.00;;;-144.48;100.00
4123;BME280;2075;51.062;6.920;2023-05-22T00:09:43;-11667.00;;;-144.48;100.00
4123;BME280;2075;51.062;6.920;2023-05-22T00:12:28;-11667.00;;;-144.48;100.00
4123;BME280;2075;51.062;6.920;2023-05-22T00:15:13;-11667.00;;;-144.48;100.00
4123;BME280;2075;51.062;6.920;2023-05-22T00:17:59;-11667.00;;;-144.48;100.00
4123;BME280;2075;51.062;6.920;2023-05-22T00:20:44;-11667.00;;;-144.48;100.00
4123;BME280;2075;51.062;6.920;2023-05-22T00:23:30;-11667.00;;;-144.48;100.00
4123;BME280;2075;51.062;6.920;2023-05-22T00:26:16;-11667.00;;;-144.48;100.00
4123;BME280;2075;51.062;6.920;2023-05-22T00:29:02;-11667.00;;;-144.48;100.00
4123;BME280;2075;51.062;6.920;2023-05-22T00:31:49;-11667.00;;;-144.48;100.00
4123;BME280;2075;51.062;6.920;2023-05-22T00:34:34;-11667.00;;;-144.48;100.00
4123;BME280;2075;51.062;6.920;2023-05-22T00:37:19;-11667.00;;;-144.48;100.00
4123;BME280;2075;51.062;6.920;2023-05-22T00:40:06;-11667.00;;;-144.48;100.00
4123;BME280;2075;51.062;6.920;2023-05-22T00:42:53;-11667.00;;;-144.48;100.00
4123;BME280;2075;51.062;6.920;2023-05-22T00:45:38;-11667.00;;;-144.48;100.00
4123;BME280;2075;51.062;6.920;2023-05-22T00:48:24;-11667.00;;;-144.48;100.00
4123;BME280;2075;51.062;6.920;2023-05-22T00:51:11;-11667.00;;;-144.48;100.00
4123;BME280;2075;51.062;6.920;2023-05-22T00:53:57;-11667.00;;;-144.48;100.00
4123;BME280;2075;51.062;6.920;2023-05-22T00:56:43;-11667.00;;;-144.48;100.00
4123;BME280;2075;51.062;6.920;2023-05-22T00:59:30;-11667.00;;;-144.48;100.00
4123;BME280;2075;51.062;6.920;2023-05-22T01:02:15;-11667.00;;;-144.48;100.00
4123;BME280;2075;51.062;6.920;2023-05-22T01:05:01;-11667.00;;;-144.48;100.00
4123;BME280;2075;51.062;6.920;2023-05-22T01:07:49;-11667.00;;;-144.48;100.00
4123;BME280;2075;51.062;6.920;2023-05-22T01:10:36;-11667.00;;;-144.48;100.00
4123;BME280;2075;51.062;6.920;2023-05-22T01:13:27;-11667.00;;;-144.48;100.00
4123;BME280;2075;51.062;6.920;2023-05-22T01:16:23;-11667.00;;;-144.48;100.00
4123;BME280;2075;51.062;6.920;2023-05-22T01:19:26;-11667.00;;;-144.48;100.00
4123;BME280;2075;51.062;6.920;2023-05-22T01:22:24;-11667.00;;;-144.48;100.00
4123;BME280;2075;51.062;6.920;2023-05-22T01:25:35;-11667.00;;;-144.48;100.00
4123;BME280;2075;51.062;6.920;2023-05-22T01:28:52;-11667.00;;;-144.48;100.00
4123;BME280;2075;51.062;6.920;2023-05-22T01:31:41;-11667.00;;;-144.48;100.00
4123;BME280;2075;51.062;6.920;2023-05-22T01:34:29;-11667.00;;;-144.48;100.00
4123;BME280;2075;51.062;6.920;2023-05-22T01:37:16;-11667.00;;;-144.48;100.00
4123;BME280;2075;51.062;6.920;2023-05-22T01:40:03;-11667.00;;;-144.48;100.00
4123;BME280;2075;51.062;6.920;2023-05-22T01:42:50;-11667.00;;;-144.48;100.00
4123;BME280;2075;51.062;6.920;2023-05-22T01:45:35;-11667.00;;;-144.48;100.00
4123;BME280;2075;51.062;6.920;2023-05-22T01:48:22;-11667.00;;;-144.48;100.00
4123;BME280;2075;51.062;6.920;2023-05-22T01:51:12;-11667.00;;;-144.48;100.00
4123;BME280;2075;51.062;6.920;2023-05-22T01:54:03;-11667.00;;;-144.48;100.00
4123;BME280;2075;51.062;6.920;2023-05-22T01:56:52;-11667.00;;;-144.48;100.00
4123;BME280;2075;51.062;6.920;2023-05-22T01:59:43;-11667.00;;;-144.48;100.00
4123;BME280;2075;51.062;6.920;2023-05-22T02:02:34;-11667.00;;;-144.48;100.00
4123;BME280;2075;51.062;6.920;2023-05-22T02:05:22;-11667.00;;;-144.48;100.00
4123;BME280;2075;51.062;6.920;2023-05-22T02:08:09;-11667.00;;;-144.48;100.00
4123;BME280;2075;51.062;6.920;2023-05-22T02:10:59;-11667.00;;;-144.48;100.00
4123;BME280;2075;51.062;6.920;2023-05-22T02:13:46;-11667.00;;;-144.48;100.00
4123;BME280;2075;51.062;6.920;2023-05-22T02:16:31;-11667.00;;;-144.48;100.00
4123;BME280;2075;51.062;6.920;2023-05-22T02:19:17;-11667.00;;;-144.48;100.00
4123;BME280;2075;51.062;6.920;2023-05-22T02:22:05;-11667.00;;;-144.48;100.00
4123;BME280;2075;51.062;6.920;2023-05-22T02:24:54;-11667.00;;;-144.48;100.00
4123;BME280;2075;51.062;6.920;2023-05-22T02:27:40;-11667.00;;;-144.48;100.00
4123;BME280;2075;51.062;6.920;2023-05-22T02:30:26;-11667.00;;;-144.48;100.00
4123;BME280;2075;51.062;6.920;2023-05-22T02:33:13;-11667.00;;;-144.48;100.00
4123;BME280;2075;51.062;6.920;2023-05-22T02:36:01;-11667.00;;;-144.48;100.00
4123;BME280;2075;51.062;6.920;2023-05-22T02:38:48;-11667.00;;;-144.48;100.00
4123;BME280;2075;51.062;6.920;2023-05-22T02:41:34;-11667.00;;;-144.48;100.00
4123;BME280;2075;51.062;6.920;2023-05-22T02:44:20;-11667.00;;;-144.48;100.00
4123;BME280;2075;51.062;6.920;2023-05-22T02:47:05;-11667.00;;;-144.48;100.00
4123;BME280;2075;51.062;6.920;2023-05-22T02:49:51;-11667.00;;;-144.48;100.00
4123;BME280;2075;51.062;6.920;2023-05-22T02:52:37;-11667.00;;;-144.48;100.00
4123;BME280;2075;51.062;6.920;2023-05-22T02:55:23;-11667.00;;;-144.48;100.00
4123;BME280;2075;51.062;6.920;2023-05-22T02:58:09;-11667.00;;;-144.48;100.00
4123;BME280;2075;51.062;6.920;2023-05-22T03:00:55;-11667.00;;;-144.48;100.00
4123;BME280;2075;51.062;6.920;2023-05-22T03:03:40;-11667.00;;;-144.48;100.00
4123;BME280;2075;51.062;6.920;2023-05-22T03:06:26;-11667.00;;;-144.48;100.00
4123;BME280;2075;51.062;6.920;2023-05-22T03:09:12;-11667.00;;;-144.48;100.00
4123;BME280;2075;51.062;6.920;2023-05-22T03:11:58;-11667.00;;;-144.48;100.00
4123;BME280;2075;51.062;6.920;2023-05-22T03:14:45;-11667.00;;;-144.48;100.00
4123;BME280;2075;51.062;6.920;2023-05-22T03:17:31;-11667.00;;;-144.48;100.00
4123;BME280;2075;51.062;6.920;2023-05-22T03:20:16;-11667.00;;;-144.48;100.00
4123;BME280;2075;51.062;6.920;2023-05-22T03:23:02;-11667.00;;;-144.48;100.00
4123;BME280;2075;51.062;6.920;2023-05-22T03:25:48;-11667.00;;;-144.48;100.00
4123;BME280;2075;51.062;6.920;2023-05-22T03:28:36;-11667.00;;;-144.48;100.00
4123;BME280;2075;51.062;6.920;2023-05-22T03:31:23;-11667.00;;;-144.48;100.00
4123;BME280;2075;51.062;6.920;2023-05-22T03:34:18;-11667.00;;;-144.48;100.00
4123;BME280;2075;51.062;6.920;2023-05-22T03:37:05;-11667.00;;;-144.48;100.00
4123;BME280;2075;51.062;6.920;2023-05-22T03:39:52;-11667.00;;;-144.48;100.00
4123;BME280;2075;51.062;6.920;2023-05-22T03:42:42;-11667.00;;;-144.48;100.00
4123;BME280;2075;51.062;6.920;2023-05-22T03:45:29;-11667.00;;;-144.48;100.00
4123;BME280;2075;51.062;6.920;2023-05-22T03:48:15;-11667.00;;;-144.48;100.00
4123;BME280;2075;51.062;6.920;2023-05-22T03:51:02;-11667.00;;;-144.48;100.00
4123;BME280;2075;51.062;6.920;2023-05-22T03:53:47;-11667.00;;;-144.48;100.00
4123;BME280;2075;51.062;6.920;2023-05-22T03:56:33;-11667.00;;;-144.48;100.00
4123;BME280;2075;51.062;6.920;2023-05-22T03:59:19;-11667.00;;;-144.48;100.00
4123;BME280;2075;51.062;6.920;2023-05-22T04:02:06;-11667.00;;;-144.48;100.00
4123;BME280;2075;51.062;6.920;2023-05-22T04:04:55;-11667.00;;;-144.48;100.00
4123;BME280;2075;51.062;6.920;2023-05-22T04:07:41;-11667.00;;;-144.48;100.00
4123;BME280;2075;51.062;6.920;2023-05-22T04:10:26;-11667.00;;;-144.48;100.00
4123;BME280;2075;51.062;6.920;2023-05-22T04:13:12;-11667.00;;;-144.48;100.00
4123;BME280;2075;51.062;6.920;2023-05-22T04:15:57;-11667.00;;;-144.48;100.00
4123;BME280;2075;51.062;6.920;2023-05-22T04:18:46;-11667.00;;;-144.48;100.00
4123;BME280;2075;51.062;6.920;2023-05-22T04:21:31;-11667.00;;;-144.48;100.00
4123;BME280;2075;51.062;6.920;2023-05-22T04:24:17;-11667.00;;;-144.48;100.00
4123;BME280;2075;51.062;6.920;2023-05-22T04:27:03;-11667.00;;;-144.48;100.00
4123;BME280;2075;51.062;6.920;2023-05-22T04:29:48;-11667.00;;;-144.48;100.00
4123;BME280;2075;51.062;6.920;2023-05-22T04:32:34;-11667.00;;;-144.48;100.00
4123;BME280;2075;51.062;6.920;2023-05-22T04:35:21;-11667.00;;;-144.48;100.00
4123;BME280;2075;51.062;6.920;2023-05-22T04:38:06;-11667.00;;;-144.48;100.00
4123;BME280;2075;51.062;6.920;2023-05-22T04:40:52;-11667.00;;;-144.48;100.00
4123;BME280;2075;51.062;6.920;2023-05-22T04:43:38;-11667.00;;;-144.48;100.00
4123;BME280;2075;51.062;6.920;2023-05-22T04:46:23;-11667.00;;;-144.48;100.00
4123;BME280;2075;51.062;6.920;2023-05-22T04:49:08;-11667.00;;;-144.48;100.00
4123;BME280;2075;51.062;6.920;2023-05-22T04:51:55;-11667.00;;;-144.48;100.00
4123;BME280;2075;51.062;6.920;2023-05-22T04:54:41;-11667.00;;;-144.48;100.00
4123;BME280;2075;51.062;6.920;2023-05-22T04:57:27;-11667.00;;;-144.48;100.00
4123;BME280;2075;51.062;6.920;2023-05-22T05:00:13;-11667.00;;;-144.48;100.00
4123;BME280;2075;51.062;6.920;2023-05-22T05:03:00;-11665.53;;;-144.48;100.00
4123;BME280;2075;51.062;6.920;2023-05-22T05:05:45;-9649.03;;;-144.48;100.00
4123;BME280;2075;51.062;6.920;2023-05-22T05:08:33;-6117.19;;;-144.48;100.00
4123;BME280;2075;51.062;6.920;2023-05-22T05:11:18;-4097.28;;;-144.48;100.00
4123;BME280;2075;51.062;6.920;2023-05-22T05:14:05;-1823.38;;;-144.48;100.00
4123;BME280;2075;51.062;6.920;2023-05-22T05:16:50;-1317.84;;;-144.48;100.00
4123;BME280;2075;51.062;6.920;2023-05-22T05:19:36;705.03;;;-144.48;100.00
4123;BME280;2075;51.062;6.920;2023-05-22T05:22:21;3994.88;;;-144.48;100.00
4123;BME280;2075;51.062;6.920;2023-05-22T05:25:08;7541.47;;;-144.48;100.00
4123;BME280;2075;51.062;6.920;2023-05-22T05:27:54;13630.22;;;-144.48;100.00
4123;BME280;2075;51.062;6.920;2023-05-22T05:30:40;21511.53;;;-144.48;100.00
4123;BME280;2075;51.062;6.920;2023-05-22T05:33:35;31708.63;;;-144.48;100.00
4123;BME280;2075;51.062;6.920;2023-05-22T05:36:24;43986.31;;;-144.48;100.00
4123;BME280;2075;51.062;6.920;2023-05-22T05:39:10;47575.78;;;-144.48;100.00
4123;BME280;2075;51.062;6.920;2023-05-22T05:41:57;52196.44;;;-144.48;100.00
4123;BME280;2075;51.062;6.920;2023-05-22T05:44:44;54766.19;;;-144.48;100.00
4123;BME280;2075;51.062;6.920;2023-05-22T05:47:30;51939.56;;;-144.48;100.00
4123;BME280;2075;51.062;6.920;2023-05-22T05:50:15;44755.16;;;-144.48;100.00
4123;BME280;2075;51.062;6.920;2023-05-22T05:53:01;35284.97;;;-144.48;100.00
4123;BME280;2075;51.062;6.920;2023-05-22T05:55:46;31708.63;;;-144.48;100.00
4123;BME280;2075;51.062;6.920;2023-05-22T05:58:33;30177.06;;;-144.48;100.00
4123;BME280;2075;51.062;6.920;2023-05-22T06:01:57;31198.03;;;-144.48;100.00
4123;BME280;2075;51.062;6.920;2023-05-22T06:04:46;39121.03;;;-144.48;100.00
4123;BME280;2075;51.062;6.920;2023-05-22T06:07:34;39632.81;;;-144.48;100.00
4123;BME280;2075;51.062;6.920;2023-05-22T06:10:23;38097.66;;;-144.48;100.00
4123;BME280;2075;51.062;6.920;2023-05-22T06:13:15;37330.31;;;-144.48;100.00
4123;BME280;2075;51.062;6.920;2023-05-22T06:16:02;30687.50;;;-144.48;100.00
4123;BME280;2075;51.062;6.920;2023-05-22T06:18:49;34773.81;;;-144.48;100.00
4123;BME280;2075;51.062;6.920;2023-05-22T06:21:35;31198.03;;;-144.48;100.00
4123;BME280;2075;51.062;6.920;2023-05-22T06:24:21;32985.44;;;-144.48;100.00
4123;BME280;2075;51.062;6.920;2023-05-22T06:27:07;34518.28;;;-144.48;100.00
4123;BME280;2075;51.062;6.920;2023-05-22T06:29:53;32985.44;;;-144.48;100.00
4123;BME280;2075;51.062;6.920;2023-05-22T06:32:40;31453.31;;;-144.48;100.00
4123;BME280;2075;51.062;6.920;2023-05-22T06:35:26;31963.94;;;-144.48;100.00
4123;BME280;2075;51.062;6.920;2023-05-22T06:38:11;37586.06;;;-144.48;100.00
4123;BME280;2075;51.062;6.920;2023-05-22T06:40:59;38609.28;;;-144.48;100.00
4123;BME280;2075;51.062;6.920;2023-05-22T06:43:44;41680.84;;;-144.48;100.00
4123;BME280;2075;51.062;6.920;2023-05-22T06:46:30;38609.28;;;-144.48;100.00
4123;BME280;2075;51.062;6.920;2023-05-22T06:49:21;34518.28;;;-144.48;100.00
4123;BME280;2075;51.062;6.920;2023-05-22T06:52:09;26351.25;;;-144.48;100.00
4123;BME280;2075;51.062;6.920;2023-05-22T06:54:55;17441.41;;;-144.48;100.00
4123;BME280;2075;51.062;6.920;2023-05-22T06:57:51;14138.13;;;-144.48;100.00
4123;BME280;2075;51.062;6.920;2023-05-22T07:00:37;8809.03;;;-144.48;100.00
4123;BME280;2075;51.062;6.920;2023-05-22T07:03:29;5514.38;;;-144.48;100.00
4123;BME280;2075;51.062;6.920;2023-05-22T07:06:35;7541.47;;;-144.48;100.00
4123;BME280;2075;51.062;6.920;2023-05-22T07:09:22;11599.41;;;-144.48;100.00
4123;BME280;2075;51.062;6.920;2023-05-22T07:12:09;16424.66;;;-144.48;100.00
4123;BME280;2075;51.062;6.920;2023-05-22T07:14:55;23293.75;;;-144.48;100.00
4123;BME280;2075;51.062;6.920;2023-05-22T07:17:43;24822.16;;;-144.48;100.00
4123;BME280;2075;51.062;6.920;2023-05-22T07:20:29;26096.34;;;-144.48;100.00
4123;BME280;2075;51.062;6.920;2023-05-22T07:23:25;32219.28;;;-144.48;100.00
4123;BME280;2075;51.062;6.920;2023-05-22T07:26:12;37586.06;;;-144.48;100.00
4123;BME280;2075;51.062;6.920;2023-05-22T07:29:04;44242.59;;;-144.48;100.00
4123;BME280;2075;51.062;6.920;2023-05-22T07:31:51;48088.88;;;-144.48;100.00
4123;BME280;2075;51.062;6.920;2023-05-22T07:34:39;44242.59;;;-144.48;100.00
4123;BME280;2075;51.062;6.920;2023-05-22T07:37:25;42449.16;;;-144.48;100.00
4123;BME280;2075;51.062;6.920;2023-05-22T07:40:12;38865.16;;;-144.48;100.00
4123;BME280;2075;51.062;6.920;2023-05-22T07:42:58;51682.72;;;-144.48;100.00
4123;BME280;2075;51.062;6.920;2023-05-22T07:45:43;57337.88;;;-144.48;100.00
4123;BME280;2075;51.062;6.920;2023-05-22T07:48:32;63260.19;;;-144.48;100.00
4123;BME280;2075;51.062;6.920;2023-05-22T07:51:17;70568.66;;;-144.48;100.00
4123;BME280;2075;51.062;6.920;2023-05-22T07:54:06;70132.84;;;-144.48;100.00
4123;BME280;2075;51.062;6.920;2023-05-22T07:56:56;60426.50;;;-144.48;100.00
4123;BME280;2075;51.062;6.920;2023-05-22T07:59:48;63002.50;;;-144.48;100.00
4123;BME280;2075;51.062;6.920;2023-05-22T08:02:34;62487.13;;;-144.48;100.00
4123;BME280;2075;51.062;6.920;2023-05-22T08:05:19;65838.34;;;-144.48;100.00
4123;BME280;2075;51.062;6.920;2023-05-22T08:08:05;72457.75;;;-144.48;100.00
4123;BME280;2075;51.062;6.920;2023-05-22T08:10:50;78220.34;;;-144.48;100.00
4123;BME280;2075;51.062;6.920;2023-05-22T08:13:37;80534.53;;;-144.48;100.00
4123;BME280;2075;51.062;6.920;2023-05-22T08:16:23;77692.56;;;-144.48;100.00
4123;BME280;2075;51.062;6.920;2023-05-22T08:19:09;83879.16;;;-144.48;99.00
4123;BME280;2075;51.062;6.920;2023-05-22T08:21:57;86387.72;;;-144.48;98.07
4123;BME280;2075;51.062;6.920;2023-05-22T08:24:42;85414.88;;;-144.48;98.42
4123;BME280;2075;51.062;6.920;2023-05-22T08:27:28;85806.00;;;-144.48;98.24
4123;BME280;2075;51.062;6.920;2023-05-22T08:30:15;83083.19;;;-144.48;99.10
4123;BME280;2075;51.062;6.920;2023-05-22T08:33:03;85641.84;;;-144.48;97.98
4123;BME280;2075;51.062;6.920;2023-05-22T08:35:50;88516.75;;;-144.48;96.82
4123;BME280;2075;51.062;6.920;2023-05-22T08:38:36;59139.22;;;-144.48;100.00
4123;BME280;2075;51.062;6.920;2023-05-22T08:41:21;63002.50;;;-144.48;100.00
4123;BME280;2075;51.062;6.920;2023-05-22T08:44:07;53995.03;;;-144.48;100.00
4123;BME280;2075;51.062;6.920;2023-05-22T08:46:56;65838.34;;;-144.48;100.00
4123;BME280;2075;51.062;6.920;2023-05-22T08:49:42;69638.59;;;-144.48;100.00
4123;BME280;2075;51.062;6.920;2023-05-22T08:52:33;70802.72;;;-144.48;100.00
4123;BME280;2075;51.062;6.920;2023-05-22T08:55:19;73477.41;;;-144.48;100.00
4123;BME280;2075;51.062;6.920;2023-05-22T08:58:05;75156.00;;;-144.48;100.00
4123;BME280;2075;51.062;6.920;2023-05-22T09:00:51;81503.97;;;-144.48;99.57
4123;BME280;2075;51.062;6.920;2023-05-22T09:03:38;84272.13;;;-144.48;98.09
4123;BME280;2075;51.062;6.920;2023-05-22T09:06:24;85437.16;;;-144.48;97.67
4123;BME280;2075;51.062;6.920;2023-05-22T09:09:09;85893.16;;;-144.48;97.66
4123;BME280;2075;51.062;6.920;2023-05-22T09:11:55;86061.38;;;-144.48;97.29
4123;BME280;2075;51.062;6.920;2023-05-22T09:14:41;82022.22;;;-144.48;99.10
4123;BME280;2075;51.062;6.920;2023-05-22T09:17:26;80749.06;;;-144.48;99.07
4123;BME280;2075;51.062;6.920;2023-05-22T09:20:13;71529.22;;;-144.48;100.00
4123;BME280;2075;51.062;6.920;2023-05-22T09:22:59;83792.06;;;-144.48;98.08
4123;BME280;2075;51.062;6.920;2023-05-22T09:25:45;83133.81;;;-144.48;98.37
4123;BME280;2075;51.062;6.920;2023-05-22T09:28:31;89429.59;;;-144.48;94.90
4123;BME280;2075;51.062;6.920;2023-05-22T09:31:18;90705.97;;;-144.48;93.68
4123;BME280;2075;51.062;6.920;2023-05-22T09:34:04;91828.50;;;-144.48;91.38
4123;BME280;2075;51.062;6.920;2023-05-22T09:36:52;92258.94;;;-144.48;88.87
4123;BME280;2075;51.062;6.920;2023-05-22T09:39:38;92535.09;;;-144.48;84.73
4123;BME280;2075;51.062;6.920;2023-05-22T09:42:24;92565.56;;;-144.48;83.21
4123;BME280;2075;51.062;6.920;2023-05-22T09:45:10;92610.22;;;-144.48;81.30
4123;BME280;2075;51.062;6.920;2023-05-22T09:47:56;92652.88;;;-144.48;82.60
4123;BME280;2075;51.062;6.920;2023-05-22T09:50:45;92591.94;;;-144.48;82.49
4123;BME280;2075;51.062;6.920;2023-05-22T09:53:33;92624.44;;;-144.48;84.31
4123;BME280;2075;51.062;6.920;2023-05-22T09:56:20;92563.53;;;-144.48;84.43
4123;BME280;2075;51.062;6.920;2023-05-22T09:59:07;92543.22;;;-144.48;83.22
4123;BME280;2075;51.062;6.920;2023-05-22T10:01:53;92563.53;;;-144.48;82.04
4123;BME280;2075;51.062;6.920;2023-05-22T10:04:39;92575.72;;;-144.48;81.66
4123;BME280;2075;51.062;6.920;2023-05-22T10:07:29;92571.66;;;-144.48;81.99
4123;BME280;2075;51.062;6.920;2023-05-22T10:10:20;92583.84;;;-144.48;81.52
4123;BME280;2075;51.062;6.920;2023-05-22T10:13:06;92571.66;;;-144.48;81.23
4123;BME280;2075;51.062;6.920;2023-05-22T10:15:53;92596.00;;;-144.48;80.24
4123;BME280;2075;51.062;6.920;2023-05-22T10:18:39;92533.06;;;-144.48;78.25
4123;BME280;2075;51.062;6.920;2023-05-22T10:21:27;92533.06;;;-144.48;77.57
4123;BME280;2075;51.062;6.920;2023-05-22T10:24:15;92541.19;;;-144.48;78.11
4123;BME280;2075;51.062;6.920;2023-05-22T10:27:03;92555.41;;;-144.48;77.63
4123;BME280;2075;51.062;6.920;2023-05-22T10:29:51;92518.84;;;-144.48;77.41
4123;BME280;2075;51.062;6.920;2023-05-22T10:32:44;92543.22;;;-144.48;74.33
4123;BME280;2075;51.062;6.920;2023-05-22T10:35:37;92600.06;;;-144.48;74.00
4123;BME280;2075;51.062;6.920;2023-05-22T10:38:45;92545.25;;;-144.48;75.04
4123;BME280;2075;51.062;6.920;2023-05-22T10:41:35;92569.63;;;-144.48;74.45
4123;BME280;2075;51.062;6.920;2023-05-22T10:44:22;92437.63;;;-144.48;71.24
4123;BME280;2075;51.062;6.920;2023-05-22T10:47:08;92478.25;;;-144.48;68.71
4123;BME280;2075;51.062;6.920;2023-05-22T10:50:05;92449.81;;;-144.48;66.96
4123;BME280;2075;51.062;6.920;2023-05-22T10:53:17;92409.19;;;-144.48;65.98
4123;BME280;2075;51.062;6.920;2023-05-22T10:56:09;92374.69;;;-144.48;65.02
4123;BME280;2075;51.062;6.920;2023-05-22T10:58:57;92362.50;;;-144.48;63.49
4123;BME280;2075;51.062;6.920;2023-05-22T11:01:59;92338.13;;;-144.48;62.93
4123;BME280;2075;51.062;6.920;2023-05-22T11:04:46;92297.53;;;-144.48;60.59
4123;BME280;2075;51.062;6.920;2023-05-22T11:07:37;92305.63;;;-144.48;61.82
4123;BME280;2075;51.062;6.920;2023-05-22T11:10:51;92281.28;;;-144.48;59.96
4123;BME280;2075;51.062;6.920;2023-05-22T11:13:37;92254.88;;;-144.48;58.42
4123;BME280;2075;51.062;6.920;2023-05-22T11:16:22;92171.63;;;-144.48;58.09
4123;BME280;2075;51.062;6.920;2023-05-22T11:19:10;92206.16;;;-144.48;57.09
4123;BME280;2075;51.062;6.920;2023-05-22T11:21:59;92137.13;;;-144.48;56.03
4123;BME280;2075;51.062;6.920;2023-05-22T11:24:45;92283.31;;;-144.48;58.10
4123;BME280;2075;51.062;6.920;2023-05-22T11:27:31;92185.84;;;-144.48;59.09
4123;BME280;2075;51.062;6.920;2023-05-22T11:30:17;92218.31;;;-144.48;57.38
4123;BME280;2075;51.062;6.920;2023-05-22T11:33:04;92179.75;;;-144.48;56.64
4123;BME280;2075;51.062;6.920;2023-05-22T11:35:52;92200.06;;;-144.48;55.88
4123;BME280;2075;51.062;6.920;2023-05-22T11:38:38;92191.94;;;-144.48;55.46
4123;BME280;2075;51.062;6.920;2023-05-22T11:41:29;92204.13;;;-144.48;55.56
4123;BME280;2075;51.062;6.920;2023-05-22T11:44:14;92165.53;;;-144.48;56.64
4123;BME280;2075;51.062;6.920;2023-05-22T11:47:00;92059.97;;;-144.48;55.12
4123;BME280;2075;51.062;6.920;2023-05-22T11:49:45;92084.31;;;-144.48;52.92
4123;BME280;2075;51.062;6.920;2023-05-22T11:52:33;92161.47;;;-144.48;56.75
4123;BME280;2075;51.062;6.920;2023-05-22T11:55:19;92265.03;;;-144.48;57.35
4123;BME280;2075;51.062;6.920;2023-05-22T11:58:04;92366.56;;;-144.48;61.93
4123;BME280;2075;51.062;6.920;2023-05-22T12:00:50;92311.72;;;-144.48;62.70
4123;BME280;2075;51.062;6.920;2023-05-22T12:03:35;92358.44;;;-144.48;61.83
4123;BME280;2075;51.062;6.920;2023-05-22T12:06:21;92382.81;;;-144.48;61.19
4123;BME280;2075;51.062;6.920;2023-05-22T12:09:07;92364.53;;;-144.48;60.98
4123;BME280;2075;51.062;6.920;2023-05-22T12:11:54;92338.13;;;-144.48;61.35
4123;BME280;2075;51.062;6.920;2023-05-22T12:14:43;92346.25;;;-144.48;59.32
4123;BME280;2075;51.062;6.920;2023-05-22T12:17:29;92386.88;;;-144.48;61.28
4123;BME280;2075;51.062;6.920;2023-05-22T12:20:14;92346.25;;;-144.48;61.83
4123;BME280;2075;51.062;6.920;2023-05-22T12:23:00;92449.81;;;-144.48;62.26
4123;BME280;2075;51.062;6.920;2023-05-22T12:25:46;92482.31;;;-144.48;66.03
4123;BME280;2075;51.062;6.920;2023-05-22T12:28:32;92425.44;;;-144.48;65.21
4123;BME280;2075;51.062;6.920;2023-05-22T12:31:21;92315.78;;;-144.48;64.42
4123;BME280;2075;51.062;6.920;2023-05-22T12:34:06;92344.22;;;-144.48;62.34
4123;BME280;2075;51.062;6.920;2023-05-22T12:36:52;92358.44;;;-144.48;63.18
4123;BME280;2075;51.062;6.920;2023-05-22T12:39:37;92352.34;;;-144.48;62.01
4123;BME280;2075;51.062;6.920;2023-05-22T12:42:25;92382.81;;;-144.48;62.72
4123;BME280;2075;51.062;6.920;2023-05-22T12:45:10;92437.63;;;-144.48;66.20
4123;BME280;2075;51.062;6.920;2023-05-22T12:47:56;92388.88;;;-144.48;65.49
4123;BME280;2075;51.062;6.920;2023-05-22T12:50:42;92437.63;;;-144.48;65.49
4123;BME280;2075;51.062;6.920;2023-05-22T12:53:27;92360.47;;;-144.48;64.71
4123;BME280;2075;51.062;6.920;2023-05-22T12:56:13;92352.34;;;-144.48;64.78
4123;BME280;2075;51.062;6.920;2023-05-22T12:58:59;92417.31;;;-144.48;63.45
4123;BME280;2075;51.062;6.920;2023-05-22T13:01:45;92502.59;;;-144.48;65.54
4123;BME280;2075;51.062;6.920;2023-05-22T13:04:30;92401.06;;;-144.48;65.99
4123;BME280;2075;51.062;6.920;2023-05-22T13:07:16;92431.53;;;-144.48;67.67
4123;BME280;2075;51.062;6.920;2023-05-22T13:10:03;92411.22;;;-144.48;66.70
4123;BME280;2075;51.062;6.920;2023-05-22T13:12:49;92376.72;;;-144.48;65.99
4123;BME280;2075;51.062;6.920;2023-05-22T13:15:36;92378.75;;;-144.48;68.15
4123;BME280;2075;51.062;6.920;2023-05-22T13:18:22;92384.84;;;-144.48;67.58
4123;BME280;2075;51.062;6.920;2023-05-22T13:21:07;92350.31;;;-144.48;65.70
4123;BME280;2075;51.062;6.920;2023-05-22T13:23:54;92360.47;;;-144.48;65.46
4123;BME280;2075;51.062;6.920;2023-05-22T13:26:39;92086.34;;;-144.48;62.69
4123;BME280;2075;51.062;6.920;2023-05-22T13:29:24;92334.06;;;-144.48;64.43
4123;BME280;2075;51.062;6.920;2023-05-22T13:32:12;92307.66;;;-144.48;62.91
4123;BME280;2075;51.062;6.920;2023-05-22T13:34:58;92372.66;;;-144.48;64.61
4123;BME280;2075;51.062;6.920;2023-05-22T13:37:44;92325.94;;;-144.48;64.17
4123;BME280;2075;51.062;6.920;2023-05-22T13:40:29;92344.22;;;-144.48;65.00
4123;BME280;2075;51.062;6.920;2023-05-22T13:43:15;92388.88;;;-144.48;64.34
4123;BME280;2075;51.062;6.920;2023-05-22T13:46:00;92364.53;;;-144.48;65.49
4123;BME280;2075;51.062;6.920;2023-05-22T13:48:48;92382.81;;;-144.48;64.35
4123;BME280;2075;51.062;6.920;2023-05-22T13:51:34;92354.38;;;-144.48;64.30
4123;BME280;2075;51.062;6.920;2023-05-22T13:54:19;92271.13;;;-144.48;63.93
4123;BME280;2075;51.062;6.920;2023-05-22T13:57:05;92244.72;;;-144.48;63.13
4123;BME280;2075;51.062;6.920;2023-05-22T13:59:50;92275.19;;;-144.48;62.80
4123;BME280;2075;51.062;6.920;2023-05-22T14:02:35;92236.59;;;-144.48;63.36
4123;BME280;2075;51.062;6.920;2023-05-22T14:05:22;92273.16;;;-144.48;65.13
4123;BME280;2075;51.062;6.920;2023-05-22T14:08:08;92313.75;;;-144.48;65.29
4123;BME280;2075;51.062;6.920;2023-05-22T14:10:54;92283.31;;;-144.48;64.49
4123;BME280;2075;51.062;6.920;2023-05-22T14:13:39;92281.28;;;-144.48;63.05
4123;BME280;2075;51.062;6.920;2023-05-22T14:16:25;92252.84;;;-144.48;64.37
4123;BME280;2075;51.062;6.920;2023-05-22T14:19:11;92291.44;;;-144.48;62.83
4123;BME280;2075;51.062;6.920;2023-05-22T14:21:58;92258.94;;;-144.48;62.42
4123;BME280;2075;51.062;6.920;2023-05-22T14:24:44;92230.50;;;-144.48;61.70
4123;BME280;2075;51.062;6.920;2023-05-22T14:27:30;92352.34;;;-144.48;63.01
4123;BME280;2075;51.062;6.920;2023-05-22T14:30:15;92319.84;;;-144.48;63.46
4123;BME280;2075;51.062;6.920;2023-05-22T14:33:01;92348.28;;;-144.48;63.89
4123;BME280;2075;51.062;6.920;2023-05-22T14:35:47;92313.75;;;-144.48;63.55